sensor_id;sensor_type;location;lat;lon;timestamp;temperature;humidity
3262;DHT22;1643;47.746;9.000;2022-10-16T11:27:16;21.50;99.90
3262;DHT22;1643;47.746;9.000;2022-10-16T11:29:59;21.50;99.90
3262;DHT22;1643;47.746;9.000;2022-10-16T11:32:33;21.40;99.90
3262;DHT22;1643;47.746;9.000;2022-10-16T11:35:11;21.50;99.90
3262;DHT22;1643;47.746;9.000;2022-10-16T11:37:43;21.50;99.90
3262;DHT22;1643;47.746;9.000;2022-10-16T11:40:29;21.50;99.90
3262;DHT22;1643;47.746;9.000;2022-10-16T11:43:42;21.60;99.90
3262;DHT22;1643;47.746;9.000;2022-10-16T11:46:13;21.20;99.90
3262;DHT22;1643;47.746;9.000;2022-10-16T11:48:54;20.90;99.90
3262;DHT22;1643;47.746;9.000;2022-10-16T11:56:26;21.30;99.90
3262;DHT22;1643;47.746;9.000;2022-10-16T11:58:59;21.50;99.90
3262;DHT22;1643;47.746;9.000;2022-10-16T12:01:47;21.70;99.90
3262;DHT22;1643;47.746;9.000;2022-10-16T12:07:27;21.90;99.90
3262;DHT22;1643;47.746;9.000;2022-10-16T12:09:57;21.80;99.90
3262;DHT22;1643;47.746;9.000;2022-10-16T12:15:20;21.90;99.90
3262;DHT22;1643;47.746;9.000;2022-10-16T12:17:46;22.20;99.90
3262;DHT22;1643;47.746;9.000;2022-10-16T12:22:51;22.30;99.90
3262;DHT22;1643;47.746;9.000;2022-10-16T12:25:36;22.40;99.90
3262;DHT22;1643;47.746;9.000;2022-10-16T12:30:43;22.50;99.90
3262;DHT22;1643;47.746;9.000;2022-10-16T12:33:21;22.60;99.90
3262;DHT22;1643;47.746;9.000;2022-10-16T12:35:48;22.90;99.90
3262;DHT22;1643;47.746;9.000;2022-10-16T12:38:53;22.70;99.90
3262;DHT22;1643;47.746;9.000;2022-10-16T12:41:33;22.70;99.90
3262;DHT22;1643;47.746;9.000;2022-10-16T12:44:00;22.60;99.90
3262;DHT22;1643;47.746;9.000;2022-10-16T12:46:37;22.70;99.90
3262;DHT22;1643;47.746;9.000;2022-10-16T12:51:37;23.00;99.90
3262;DHT22;1643;47.746;9.000;2022-10-16T13:07:33;23.50;99.90
3262;DHT22;1643;47.746;9.000;2022-10-16T13:10:14;23.50;99.90
3262;DHT22;1643;47.746;9.000;2022-10-16T13:18:16;23.50;99.90
3262;DHT22;1643;47.746;9.000;2022-10-16T13:23:29;23.40;99.90
3262;DHT22;1643;47.746;9.000;2022-10-16T13:28:27;23.30;99.90
3262;DHT22;1643;47.746;9.000;2022-10-16T13:30:54;23.30;99.90
3262;DHT22;1643;47.746;9.000;2022-10-16T13:33:25;23.30;99.90
3262;DHT22;1643;47.746;9.000;2022-10-16T13:35:54;23.50;99.90
3262;DHT22;1643;47.746;9.000;2022-10-16T13:40:50;23.70;99.90
3262;DHT22;1643;47.746;9.000;2022-10-16T13:43:26;23.90;99.90
3262;DHT22;1643;47.746;9.000;2022-10-16T13:45:53;23.80;99.90
3262;DHT22;1643;47.746;9.000;2022-10-16T13:48:19;24.00;99.90
3262;DHT22;1643;47.746;9.000;2022-10-16T13:50:44;24.00;99.90
3262;DHT22;1643;47.746;9.000;2022-10-16T13:53:13;24.10;99.90
3262;DHT22;1643;47.746;9.000;2022-10-16T13:55:39;24.40;99.90
3262;DHT22;1643;47.746;9.000;2022-10-16T13:58:06;24.40;99.90
3262;DHT22;1643;47.746;9.000;2022-10-16T14:00:32;24.30;99.90
3262;DHT22;1643;47.746;9.000;2022-10-16T14:03:01;24.30;99.90
3262;DHT22;1643;47.746;9.000;2022-10-16T14:05:28;24.30;99.90
3262;DHT22;1643;47.746;9.000;2022-10-16T14:07:54;24.30;99.90
3262;DHT22;1643;47.746;9.000;2022-10-16T14:10:32;24.40;99.90
3262;DHT22;1643;47.746;9.000;2022-10-16T14:12:59;24.70;99.90
3262;DHT22;1643;47.746;9.000;2022-10-16T14:15:26;24.90;99.90
3262;DHT22;1643;47.746;9.000;2022-10-16T14:17:51;25.10;99.90
3262;DHT22;1643;47.746;9.000;2022-10-16T14:20:18;25.10;99.90
3262;DHT22;1643;47.746;9.000;2022-10-16T14:22:44;25.10;99.90
3262;DHT22;1643;47.746;9.000;2022-10-16T14:27:55;24.70;99.90
3262;DHT22;1643;47.746;9.000;2022-10-16T14:30:21;24.70;99.90
3262;DHT22;1643;47.746;9.000;2022-10-16T14:35:26;24.80;99.90
3262;DHT22;1643;47.746;9.000;2022-10-16T14:37:55;24.80;99.90
3262;DHT22;1643;47.746;9.000;2022-10-16T14:40:23;24.80;99.90
3262;DHT22;1643;47.746;9.000;2022-10-16T14:42:48;24.70;99.90
3262;DHT22;1643;47.746;9.000;2022-10-16T14:45:17;24.70;99.90
3262;DHT22;1643;47.746;9.000;2022-10-16T14:47:54;24.60;99.90
3262;DHT22;1643;47.746;9.000;2022-10-16T14:50:21;24.30;99.90
3262;DHT22;1643;47.746;9.000;2022-10-16T14:52:46;24.00;99.90
3262;DHT22;1643;47.746;9.000;2022-10-16T14:55:12;24.00;99.90
3262;DHT22;1643;47.746;9.000;2022-10-16T14:57:38;24.00;99.90
3262;DHT22;1643;47.746;9.000;2022-10-16T15:00:06;24.00;99.90
3262;DHT22;1643;47.746;9.000;2022-10-16T15:02:35;24.00;99.90
3262;DHT22;1643;47.746;9.000;2022-10-16T15:05:07;24.10;99.90
3262;DHT22;1643;47.746;9.000;2022-10-16T15:07:35;24.20;99.90
3262;DHT22;1643;47.746;9.000;2022-10-16T15:10:01;24.20;99.90
3262;DHT22;1643;47.746;9.000;2022-10-16T15:12:26;24.10;99.90
3262;DHT22;1643;47.746;9.000;2022-10-16T15:14:52;24.20;99.90
3262;DHT22;1643;47.746;9.000;2022-10-16T15:17:17;24.30;99.90
3262;DHT22;1643;47.746;9.000;2022-10-16T15:19:43;24.20;99.90
3262;DHT22;1643;47.746;9.000;2022-10-16T15:22:09;24.20;99.90
3262;DHT22;1643;47.746;9.000;2022-10-16T15:24:36;24.40;99.90
3262;DHT22;1643;47.746;9.000;2022-10-16T15:27:01;24.40;99.90
3262;DHT22;1643;47.746;9.000;2022-10-16T15:29:27;24.40;99.90
3262;DHT22;1643;47.746;9.000;2022-10-16T15:31:52;24.40;99.90
3262;DHT22;1643;47.746;9.000;2022-10-16T15:34:18;24.30;99.90
3262;DHT22;1643;47.746;9.000;2022-10-16T15:36:44;24.40;99.90
3262;DHT22;1643;47.746;9.000;2022-10-16T15:41:36;24.20;99.90
3262;DHT22;1643;47.746;9.000;2022-10-16T15:44:01;24.10;99.90
3262;DHT22;1643;47.746;9.000;2022-10-16T15:46:27;23.80;99.90
3262;DHT22;1643;47.746;9.000;2022-10-16T15:48:55;23.70;99.90
3262;DHT22;1643;47.746;9.000;2022-10-16T15:51:21;23.80;99.90
3262;DHT22;1643;47.746;9.000;2022-10-16T15:53:46;23.90;99.90
3262;DHT22;1643;47.746;9.000;2022-10-16T15:56:12;23.90;99.90
3262;DHT22;1643;47.746;9.000;2022-10-16T15:58:38;23.80;99.90
3262;DHT22;1643;47.746;9.000;2022-10-16T16:01:04;23.60;99.90
3262;DHT22;1643;47.746;9.000;2022-10-16T16:03:30;23.50;99.90
3262;DHT22;1643;47.746;9.000;2022-10-16T16:05:55;23.60;99.90
3262;DHT22;1643;47.746;9.000;2022-10-16T16:08:21;23.70;99.90
3262;DHT22;1643;47.746;9.000;2022-10-16T16:10:57;23.60;99.90
3262;DHT22;1643;47.746;9.000;2022-10-16T16:13:22;23.30;99.90
3262;DHT22;1643;47.746;9.000;2022-10-16T16:15:48;23.10;99.90
3262;DHT22;1643;47.746;9.000;2022-10-16T16:18:13;22.80;99.90
3262;DHT22;1643;47.746;9.000;2022-10-16T16:20:39;22.80;99.90
3262;DHT22;1643;47.746;9.000;2022-10-16T16:23:04;23.20;99.90
3262;DHT22;1643;47.746;9.000;2022-10-16T16:25:30;23.00;99.90
3262;DHT22;1643;47.746;9.000;2022-10-16T16:27:55;22.50;99.90
3262;DHT22;1643;47.746;9.000;2022-10-16T16:30:21;22.20;99.90
3262;DHT22;1643;47.746;9.000;2022-10-16T16:32:46;21.90;99.90
3262;DHT22;1643;47.746;9.000;2022-10-16T16:35:12;21.50;99.90
3262;DHT22;1643;47.746;9.000;2022-10-16T16:37:37;21.30;99.90
3262;DHT22;1643;47.746;9.000;2022-10-16T16:40:03;21.10;99.90
3262;DHT22;1643;47.746;9.000;2022-10-16T16:42:29;21.00;99.90
3262;DHT22;1643;47.746;9.000;2022-10-16T16:44:54;20.90;99.90
3262;DHT22;1643;47.746;9.000;2022-10-16T16:47:20;20.80;99.90
3262;DHT22;1643;47.746;9.000;2022-10-16T16:49:45;20.70;99.90
3262;DHT22;1643;47.746;9.000;2022-10-16T16:52:12;20.60;99.90
3262;DHT22;1643;47.746;9.000;2022-10-16T16:54:37;20.50;99.90
3262;DHT22;1643;47.746;9.000;2022-10-16T16:57:03;20.40;99.90
3262;DHT22;1643;47.746;9.000;2022-10-16T16:59:29;20.20;99.90
3262;DHT22;1643;47.746;9.000;2022-10-16T17:01:58;20.00;99.90
3262;DHT22;1643;47.746;9.000;2022-10-16T17:04:24;20.00;99.90
3262;DHT22;1643;47.746;9.000;2022-10-16T17:06:49;19.90;99.90
3262;DHT22;1643;47.746;9.000;2022-10-16T17:09:15;19.80;99.90
3262;DHT22;1643;47.746;9.000;2022-10-16T17:11:40;19.70;99.90
3262;DHT22;1643;47.746;9.000;2022-10-16T17:14:08;19.70;99.90
3262;DHT22;1643;47.746;9.000;2022-10-16T17:16:35;19.60;99.90
3262;DHT22;1643;47.746;9.000;2022-10-16T17:19:02;19.50;99.90
3262;DHT22;1643;47.746;9.000;2022-10-16T17:21:28;19.50;99.90
3262;DHT22;1643;47.746;9.000;2022-10-16T17:23:55;19.40;99.90
3262;DHT22;1643;47.746;9.000;2022-10-16T17:26:20;19.40;99.90
3262;DHT22;1643;47.746;9.000;2022-10-16T17:28:49;19.30;99.90
3262;DHT22;1643;47.746;9.000;2022-10-16T17:31:17;19.30;99.90
3262;DHT22;1643;47.746;9.000;2022-10-16T17:33:44;19.30;99.90
3262;DHT22;1643;47.746;9.000;2022-10-16T17:36:10;19.20;99.90
3262;DHT22;1643;47.746;9.000;2022-10-16T17:38:36;19.20;99.90
3262;DHT22;1643;47.746;9.000;2022-10-16T17:41:12;19.10;99.90
3262;DHT22;1643;47.746;9.000;2022-10-16T17:43:38;19.10;99.90
3262;DHT22;1643;47.746;9.000;2022-10-16T17:46:04;19.00;99.90
3262;DHT22;1643;47.746;9.000;2022-10-16T17:48:29;19.00;99.90
3262;DHT22;1643;47.746;9.000;2022-10-16T17:50:55;18.90;99.90
3262;DHT22;1643;47.746;9.000;2022-10-16T17:53:20;18.70;99.90
3262;DHT22;1643;47.746;9.000;2022-10-16T17:55:46;18.70;99.90
3262;DHT22;1643;47.746;9.000;2022-10-16T17:58:11;18.70;99.90
3262;DHT22;1643;47.746;9.000;2022-10-16T18:00:37;18.60;99.90
3262;DHT22;1643;47.746;9.000;2022-10-16T18:03:02;18.60;99.90
3262;DHT22;1643;47.746;9.000;2022-10-16T18:05:28;18.60;99.90
3262;DHT22;1643;47.746;9.000;2022-10-16T18:07:53;18.60;99.90
3262;DHT22;1643;47.746;9.000;2022-10-16T18:10:19;18.60;99.90
3262;DHT22;1643;47.746;9.000;2022-10-16T18:12:44;18.50;99.90
3262;DHT22;1643;47.746;9.000;2022-10-16T18:15:10;18.50;99.90
3262;DHT22;1643;47.746;9.000;2022-10-16T18:17:36;18.40;99.90
3262;DHT22;1643;47.746;9.000;2022-10-16T18:20:05;18.30;99.90
3262;DHT22;1643;47.746;9.000;2022-10-16T18:22:32;18.30;99.90
3262;DHT22;1643;47.746;9.000;2022-10-16T18:25:00;18.30;99.90
3262;DHT22;1643;47.746;9.000;2022-10-16T18:27:28;18.30;99.90
3262;DHT22;1643;47.746;9.000;2022-10-16T18:29:54;18.20;99.90
3262;DHT22;1643;47.746;9.000;2022-10-16T18:32:22;18.20;99.90
3262;DHT22;1643;47.746;9.000;2022-10-16T18:34:48;18.10;99.90
3262;DHT22;1643;47.746;9.000;2022-10-16T18:37:13;18.10;99.90
3262;DHT22;1643;47.746;9.000;2022-10-16T18:39:40;18.00;99.90
3262;DHT22;1643;47.746;9.000;2022-10-16T18:42:06;18.00;99.90
3262;DHT22;1643;47.746;9.000;2022-10-16T18:44:31;18.00;99.90
3262;DHT22;1643;47.746;9.000;2022-10-16T18:46:57;18.00;99.90
3262;DHT22;1643;47.746;9.000;2022-10-16T18:49:23;17.90;99.90
3262;DHT22;1643;47.746;9.000;2022-10-16T18:51:50;17.90;99.90
3262;DHT22;1643;47.746;9.000;2022-10-16T18:54:20;17.90;99.90
3262;DHT22;1643;47.746;9.000;2022-10-16T18:56:46;17.90;99.90
3262;DHT22;1643;47.746;9.000;2022-10-16T18:59:12;17.80;99.90
3262;DHT22;1643;47.746;9.000;2022-10-16T19:01:38;17.80;99.90
3262;DHT22;1643;47.746;9.000;2022-10-16T19:04:05;17.70;99.90
3262;DHT22;1643;47.746;9.000;2022-10-16T19:06:35;17.70;99.90
3262;DHT22;1643;47.746;9.000;2022-10-16T19:09:01;17.70;99.90
3262;DHT22;1643;47.746;9.000;2022-10-16T19:11:26;17.60;99.90
3262;DHT22;1643;47.746;9.000;2022-10-16T19:13:52;17.50;99.90
3262;DHT22;1643;47.746;9.000;2022-10-16T19:16:25;17.50;99.90
3262;DHT22;1643;47.746;9.000;2022-10-16T19:18:52;17.40;99.90
3262;DHT22;1643;47.746;9.000;2022-10-16T19:21:18;17.30;99.90
3262;DHT22;1643;47.746;9.000;2022-10-16T19:23:44;17.40;99.90
3262;DHT22;1643;47.746;9.000;2022-10-16T19:26:13;17.30;99.90
3262;DHT22;1643;47.746;9.000;2022-10-16T19:28:39;17.20;99.90
3262;DHT22;1643;47.746;9.000;2022-10-16T19:31:06;17.20;99.90
3262;DHT22;1643;47.746;9.000;2022-10-16T19:33:32;17.00;99.90
3262;DHT22;1643;47.746;9.000;2022-10-16T19:38:32;16.90;99.90
3262;DHT22;1643;47.746;9.000;2022-10-16T19:41:08;16.90;99.90
3262;DHT22;1643;47.746;9.000;2022-10-16T19:43:34;16.90;99.90
3262;DHT22;1643;47.746;9.000;2022-10-16T19:46:06;16.70;99.90
3262;DHT22;1643;47.746;9.000;2022-10-16T19:48:31;16.80;99.90
3262;DHT22;1643;47.746;9.000;2022-10-16T19:50:57;16.80;99.90
3262;DHT22;1643;47.746;9.000;2022-10-16T19:53:23;16.90;99.90
3262;DHT22;1643;47.746;9.000;2022-10-16T19:55:48;16.90;99.90
3262;DHT22;1643;47.746;9.000;2022-10-16T19:58:14;16.80;99.90
3262;DHT22;1643;47.746;9.000;2022-10-16T20:00:40;16.80;99.90
3262;DHT22;1643;47.746;9.000;2022-10-16T20:03:06;16.80;99.90
3262;DHT22;1643;47.746;9.000;2022-10-16T20:05:31;16.80;99.90
3262;DHT22;1643;47.746;9.000;2022-10-16T20:07:57;16.80;99.90
3262;DHT22;1643;47.746;9.000;2022-10-16T20:10:22;16.80;99.90
3262;DHT22;1643;47.746;9.000;2022-10-16T20:12:50;16.70;99.90
3262;DHT22;1643;47.746;9.000;2022-10-16T20:15:16;16.70;99.90
3262;DHT22;1643;47.746;9.000;2022-10-16T20:17:41;16.70;99.90
3262;DHT22;1643;47.746;9.000;2022-10-16T20:20:07;16.60;99.90
3262;DHT22;1643;47.746;9.000;2022-10-16T20:22:32;16.60;99.90
3262;DHT22;1643;47.746;9.000;2022-10-16T20:24:58;16.50;99.90
3262;DHT22;1643;47.746;9.000;2022-10-16T20:27:23;16.50;99.90
3262;DHT22;1643;47.746;9.000;2022-10-16T20:29:49;16.50;99.90
3262;DHT22;1643;47.746;9.000;2022-10-16T20:32:15;16.50;99.90
3262;DHT22;1643;47.746;9.000;2022-10-16T20:34:40;16.40;99.90
3262;DHT22;1643;47.746;9.000;2022-10-16T20:37:10;16.40;99.90
3262;DHT22;1643;47.746;9.000;2022-10-16T20:39:36;16.40;99.90
3262;DHT22;1643;47.746;9.000;2022-10-16T20:42:01;16.40;99.90
3262;DHT22;1643;47.746;9.000;2022-10-16T20:44:27;16.30;99.90
3262;DHT22;1643;47.746;9.000;2022-10-16T20:46:53;16.30;99.90
3262;DHT22;1643;47.746;9.000;2022-10-16T20:49:19;16.30;99.90
3262;DHT22;1643;47.746;9.000;2022-10-16T20:51:44;16.20;99.90
3262;DHT22;1643;47.746;9.000;2022-10-16T20:54:14;16.20;99.90
3262;DHT22;1643;47.746;9.000;2022-10-16T20:56:39;16.10;99.90
3262;DHT22;1643;47.746;9.000;2022-10-16T20:59:06;16.10;99.90
3262;DHT22;1643;47.746;9.000;2022-10-16T21:01:32;16.00;99.90
3262;DHT22;1643;47.746;9.000;2022-10-16T21:04:00;16.10;99.90
3262;DHT22;1643;47.746;9.000;2022-10-16T21:06:26;16.00;99.90
3262;DHT22;1643;47.746;9.000;2022-10-16T21:08:52;16.00;99.90
3262;DHT22;1643;47.746;9.000;2022-10-16T21:11:27;16.00;99.90
3262;DHT22;1643;47.746;9.000;2022-10-16T21:13:54;16.00;99.90
3262;DHT22;1643;47.746;9.000;2022-10-16T21:16:20;16.00;99.90
3262;DHT22;1643;47.746;9.000;2022-10-16T21:18:46;16.00;99.90
3262;DHT22;1643;47.746;9.000;2022-10-16T21:21:22;15.90;99.90
3262;DHT22;1643;47.746;9.000;2022-10-16T21:23:48;15.90;99.90
3262;DHT22;1643;47.746;9.000;2022-10-16T21:26:14;15.90;99.90
3262;DHT22;1643;47.746;9.000;2022-10-16T21:28:40;15.90;99.90
3262;DHT22;1643;47.746;9.000;2022-10-16T21:31:24;15.90;99.90
3262;DHT22;1643;47.746;9.000;2022-10-16T21:33:50;15.80;99.90
3262;DHT22;1643;47.746;9.000;2022-10-16T21:36:19;15.80;99.90
3262;DHT22;1643;47.746;9.000;2022-10-16T21:38:46;15.80;99.90
3262;DHT22;1643;47.746;9.000;2022-10-16T21:41:12;15.80;99.90
3262;DHT22;1643;47.746;9.000;2022-10-16T21:43:38;15.80;99.90
3262;DHT22;1643;47.746;9.000;2022-10-16T21:46:03;15.80;99.90
3262;DHT22;1643;47.746;9.000;2022-10-16T21:48:29;15.80;99.90
3262;DHT22;1643;47.746;9.000;2022-10-16T21:50:54;15.80;99.90
3262;DHT22;1643;47.746;9.000;2022-10-16T21:53:20;15.80;99.90
3262;DHT22;1643;47.746;9.000;2022-10-16T21:55:45;15.70;99.90
3262;DHT22;1643;47.746;9.000;2022-10-16T21:58:11;15.80;99.90
3262;DHT22;1643;47.746;9.000;2022-10-16T22:00:36;15.70;99.90
3262;DHT22;1643;47.746;9.000;2022-10-16T22:03:02;15.70;99.90
3262;DHT22;1643;47.746;9.000;2022-10-16T22:05:28;15.60;99.90
3262;DHT22;1643;47.746;9.000;2022-10-16T22:07:53;15.50;99.90
3262;DHT22;1643;47.746;9.000;2022-10-16T22:10:19;15.50;99.90
3262;DHT22;1643;47.746;9.000;2022-10-16T22:12:44;15.50;99.90
3262;DHT22;1643;47.746;9.000;2022-10-16T22:15:10;15.40;99.90
3262;DHT22;1643;47.746;9.000;2022-10-16T22:17:35;15.30;99.90
3262;DHT22;1643;47.746;9.000;2022-10-16T22:20:02;15.40;99.90
3262;DHT22;1643;47.746;9.000;2022-10-16T22:22:27;15.30;99.90
3262;DHT22;1643;47.746;9.000;2022-10-16T22:24:53;15.20;99.90
3262;DHT22;1643;47.746;9.000;2022-10-16T22:27:18;15.30;99.90
3262;DHT22;1643;47.746;9.000;2022-10-16T22:29:44;15.20;99.90
3262;DHT22;1643;47.746;9.000;2022-10-16T22:32:09;15.20;99.90
3262;DHT22;1643;47.746;9.000;2022-10-16T22:34:35;15.20;99.90
3262;DHT22;1643;47.746;9.000;2022-10-16T22:37:00;15.20;99.90
3262;DHT22;1643;47.746;9.000;2022-10-16T22:39:26;15.20;99.90
3262;DHT22;1643;47.746;9.000;2022-10-16T22:41:52;15.20;99.90
3262;DHT22;1643;47.746;9.000;2022-10-16T22:44:18;15.20;99.90
3262;DHT22;1643;47.746;9.000;2022-10-16T22:46:43;15.20;99.90
3262;DHT22;1643;47.746;9.000;2022-10-16T22:49:09;15.20;99.90
3262;DHT22;1643;47.746;9.000;2022-10-16T22:51:34;15.20;99.90
3262;DHT22;1643;47.746;9.000;2022-10-16T22:54:00;15.20;99.90
3262;DHT22;1643;47.746;9.000;2022-10-16T22:56:25;15.20;99.90
3262;DHT22;1643;47.746;9.000;2022-10-16T22:58:51;15.20;99.90
3262;DHT22;1643;47.746;9.000;2022-10-16T23:01:18;15.20;99.90
3262;DHT22;1643;47.746;9.000;2022-10-16T23:03:44;15.20;99.90
3262;DHT22;1643;47.746;9.000;2022-10-16T23:06:09;15.20;99.90
3262;DHT22;1643;47.746;9.000;2022-10-16T23:08:35;15.20;99.90
3262;DHT22;1643;47.746;9.000;2022-10-16T23:11:03;15.20;99.90
3262;DHT22;1643;47.746;9.000;2022-10-16T23:13:29;15.10;99.90
3262;DHT22;1643;47.746;9.000;2022-10-16T23:15:55;15.10;99.90
3262;DHT22;1643;47.746;9.000;2022-10-16T23:18:20;15.00;99.90
3262;DHT22;1643;47.746;9.000;2022-10-16T23:20:46;14.90;99.90
3262;DHT22;1643;47.746;9.000;2022-10-16T23:23:11;14.90;99.90
3262;DHT22;1643;47.746;9.000;2022-10-16T23:25:43;14.90;99.90
3262;DHT22;1643;47.746;9.000;2022-10-16T23:28:08;14.80;99.90
3262;DHT22;1643;47.746;9.000;2022-10-16T23:30:34;14.80;99.90
3262;DHT22;1643;47.746;9.000;2022-10-16T23:32:59;14.80;99.90
3262;DHT22;1643;47.746;9.000;2022-10-16T23:35:25;14.80;99.90
3262;DHT22;1643;47.746;9.000;2022-10-16T23:37:50;14.80;99.90
3262;DHT22;1643;47.746;9.000;2022-10-16T23:40:16;14.80;99.90
3262;DHT22;1643;47.746;9.000;2022-10-16T23:42:41;14.80;99.90
3262;DHT22;1643;47.746;9.000;2022-10-16T23:45:07;14.80;99.90
3262;DHT22;1643;47.746;9.000;2022-10-16T23:47:33;14.80;99.90
3262;DHT22;1643;47.746;9.000;2022-10-16T23:49:58;14.70;99.90
3262;DHT22;1643;47.746;9.000;2022-10-16T23:52:24;14.70;99.90
3262;DHT22;1643;47.746;9.000;2022-10-16T23:54:49;14.70;99.90
3262;DHT22;1643;47.746;9.000;2022-10-16T23:57:15;14.70;99.90
3262;DHT22;1643;47.746;9.000;2022-10-16T23:59:40;14.80;99.90
